Time;durP1;ratioP1;P1;durP2;ratioP2;P2;SDS_P1;SDS_P2;PMS_P1;PMS_P2;Temp;Humidity;BMP_temperature;BMP_pressure;BME280_temperature;BME280_humidity;BME280_pressure;Samples;Min_cycle;Max_cycle;Signal;HPM_P1;HPM_P2
2021/04/15 16:14:00;;;;;;;1.60;1.50;;;6.00;69.30;;;;;;5117821;27;20305;-71
2021/04/15 16:16:25;;;;;;;1.83;1.83;;;6.00;69.70;;;;;;5118472;28;20621;-70
2021/04/15 16:18:53;;;;;;;4.93;2.03;;;6.00;69.40;;;;;;5113605;28;20177;-71
2021/04/15 16:21:21;;;;;;;1.93;1.87;;;6.00;69.50;;;;;;5116656;28;20658;-71
2021/04/15 16:23:50;;;;;;;1.90;1.53;;;6.10;68.70;;;;;;5114379;28;20576;-71
2021/04/15 16:26:17;;;;;;;1.63;1.30;;;6.10;68.40;;;;;;5110358;28;20173;-71
2021/04/15 16:28:44;;;;;;;0.90;0.90;;;6.30;68.30;;;;;;5113504;28;20230;-71
2021/04/15 16:31:11;;;;;;;2.07;1.60;;;6.30;68.30;;;;;;5095164;28;20184;-71
2021/04/15 16:33:37;;;;;;;1.43;1.43;;;6.40;68.50;;;;;;5111719;28;20235;-71
2021/04/15 16:36:05;;;;;;;1.43;1.20;;;6.30;68.40;;;;;;5107941;28;20192;-70
2021/04/15 16:38:43;;;;;;;1.53;1.53;;;6.30;68.60;;;;;;5115046;28;20184;-70
2021/04/15 16:41:15;;;;;;;2.07;1.37;;;6.20;68.90;;;;;;5111173;28;20181;-70
2021/04/15 16:43:41;;;;;;;1.73;1.63;;;6.20;69.30;;;;;;5109860;28;20189;-70
2021/04/15 16:46:08;;;;;;;1.90;1.80;;;6.20;69.40;;;;;;5104508;28;20197;-71
2021/04/15 16:48:34;;;;;;;3.07;2.17;;;6.20;69.30;;;;;;5112907;28;20184;-70
2021/04/15 16:51:10;;;;;;;2.87;2.07;;;6.20;69.40;;;;;;5115285;28;20181;-70
2021/04/15 16:53:36;;;;;;;2.50;2.30;;;6.10;69.50;;;;;;5116483;28;20583;-70
2021/04/15 16:56:02;;;;;;;3.43;2.17;;;6.20;69.60;;;;;;5113696;28;20622;-69
2021/04/15 16:58:28;;;;;;;1.73;1.63;;;6.10;69.70;;;;;;5106090;28;20193;-72
2021/04/15 17:00:57;;;;;;;2.20;2.10;;;6.10;69.70;;;;;;5112576;28;20706;-71
2021/04/15 17:03:23;;;;;;;2.37;1.93;;;6.00;70.00;;;;;;5113807;28;20177;-70
2021/04/15 17:05:49;;;;;;;1.83;1.73;;;6.00;70.10;;;;;;5113962;28;20185;-70
2021/04/15 17:08:17;;;;;;;2.67;2.33;;;5.90;70.30;;;;;;5110175;28;20277;-71
2021/04/15 17:10:46;;;;;;;2.23;1.90;;;5.90;70.20;;;;;;5110593;28;20666;-72
2021/04/15 17:13:14;;;;;;;2.30;2.10;;;5.80;70.10;;;;;;5109688;28;21083;-74
2021/04/15 17:15:40;;;;;;;3.67;1.87;;;5.80;70.10;;;;;;5110663;28;20284;-73
2021/04/15 17:18:06;;;;;;;1.77;1.67;;;5.70;70.30;;;;;;5107772;28;20287;-73
2021/04/15 17:20:33;;;;;;;2.17;2.07;;;5.70;70.30;;;;;;5106621;28;20173;-71
2021/04/15 17:22:59;;;;;;;1.67;1.50;;;5.70;70.60;;;;;;5103399;28;20182;-73
2021/04/15 17:25:26;;;;;;;1.83;1.73;;;5.60;70.40;;;;;;5096313;28;20207;-72
2021/04/15 17:27:52;;;;;;;1.70;1.70;;;5.60;70.40;;;;;;5079505;28;20208;-71
2021/04/15 17:30:20;;;;;;;1.27;1.23;;;5.60;70.50;;;;;;5095049;28;20181;-72
2021/04/15 17:32:46;;;;;;;1.20;1.20;;;5.50;70.40;;;;;;5090846;28;20916;-70
2021/04/15 17:35:13;;;;;;;2.53;1.40;;;5.50;70.50;;;;;;5092962;28;20182;-73
2021/04/15 17:37:41;;;;;;;1.47;1.37;;;5.40;70.70;;;;;;5092502;28;20179;-70
2021/04/15 17:40:10;;;;;;;2.07;1.80;;;5.40;70.90;;;;;;5094110;28;20174;-72
2021/04/15 17:42:37;;;;;;;1.50;1.40;;;5.40;71.00;;;;;;5098522;28;20182;-72
2021/04/15 17:45:04;;;;;;;2.20;1.83;;;5.30;70.90;;;;;;5090427;28;20209;-73
2021/04/15 17:47:29;;;;;;;1.40;1.40;;;5.30;71.20;;;;;;5093066;28;20178;-73
2021/04/15 17:49:56;;;;;;;3.60;1.70;;;5.30;71.00;;;;;;5091545;28;20239;-77
2021/04/15 17:52:21;;;;;;;2.03;1.43;;;5.30;71.40;;;;;;5090155;28;20328;-71
2021/04/15 17:54:52;;;;;;;2.83;1.80;;;5.20;71.40;;;;;;5097088;28;20189;-71
2021/04/15 17:57:29;;;;;;;1.97;1.80;;;5.20;71.70;;;;;;5093278;28;20189;-71
2021/04/15 17:59:55;;;;;;;2.07;1.37;;;5.20;71.50;;;;;;5076494;28;21696;-72
2021/04/15 18:02:20;;;;;;;1.47;1.37;;;5.20;71.50;;;;;;5099180;28;20189;-71
2021/04/15 18:04:46;;;;;;;2.90;2.70;;;5.20;71.40;;;;;;5105081;28;20293;-70
2021/04/15 18:07:12;;;;;;;1.73;1.73;;;5.20;71.70;;;;;;5103424;28;20296;-71
2021/04/15 18:09:37;;;;;;;1.53;1.43;;;5.10;71.70;;;;;;5093374;28;20204;-72
2021/04/15 18:12:04;;;;;;;3.80;1.67;;;5.10;71.60;;;;;;5078331;28;20274;-71
2021/04/15 18:14:29;;;;;;;1.33;1.33;;;5.10;71.70;;;;;;5094269;28;20984;-71
2021/04/15 18:16:55;;;;;;;1.97;1.67;;;5.10;71.80;;;;;;5099021;28;20205;-71
2021/04/15 18:19:21;;;;;;;1.43;1.37;;;5.10;71.90;;;;;;5091919;28;20185;-72
2021/04/15 18:21:47;;;;;;;2.17;1.43;;;5.00;71.80;;;;;;5094184;28;20238;-72
2021/04/15 18:24:13;;;;;;;3.80;1.70;;;5.00;71.80;;;;;;5089229;28;20178;-73
2021/04/15 18:26:44;;;;;;;1.67;1.57;;;5.00;71.90;;;;;;5091175;28;20573;-74
2021/04/15 18:29:10;;;;;;;1.27;1.27;;;4.90;71.90;;;;;;5077275;28;20219;-72
2021/04/15 18:31:36;;;;;;;1.20;1.20;;;5.00;71.90;;;;;;5089726;28;20225;-72
2021/04/15 18:34:02;;;;;;;1.60;1.50;;;5.00;71.90;;;;;;5088951;28;20662;-72
2021/04/15 18:36:31;;;;;;;3.33;1.93;;;4.90;71.90;;;;;;5092102;28;20201;-72
2021/04/15 18:39:00;;;;;;;1.73;1.23;;;4.90;71.80;;;;;;5090120;28;20196;-72
2021/04/15 18:41:27;;;;;;;1.03;1.00;;;5.00;71.60;;;;;;5095673;28;20182;-73
2021/04/15 18:43:54;;;;;;;3.13;1.60;;;4.90;71.90;;;;;;5092526;28;20182;-72
2021/04/15 18:46:24;;;;;;;2.43;2.23;;;4.90;71.80;;;;;;5094720;28;20189;-72
2021/04/15 18:48:51;;;;;;;2.43;2.20;;;4.80;72.00;;;;;;5092508;28;20197;-71
2021/04/15 18:51:18;;;;;;;1.43;1.33;;;4.90;71.90;;;;;;5093934;28;20247;-72
2021/04/15 18:53:45;;;;;;;2.23;2.13;;;4.90;72.00;;;;;;5095380;28;20237;-71
2021/04/15 18:56:12;;;;;;;2.37;2.27;;;4.90;72.00;;;;;;5096323;28;20190;-71
2021/04/15 18:58:37;;;;;;;2.23;1.80;;;4.80;72.20;;;;;;5094358;28;20189;-72
2021/04/15 19:01:06;;;;;;;2.43;1.87;;;4.80;72.40;;;;;;5100558;28;20708;-70
2021/04/15 19:03:32;;;;;;;1.97;1.87;;;4.80;72.30;;;;;;5098627;28;20186;-71
2021/04/15 19:06:00;;;;;;;2.30;2.20;;;4.80;72.30;;;;;;5100732;28;20516;-70
2021/04/15 19:08:25;;;;;;;1.80;1.70;;;4.80;72.20;;;;;;5094102;28;20175;-71
2021/04/15 19:10:51;;;;;;;3.47;2.30;;;4.80;72.40;;;;;;5101257;28;20238;-71
2021/04/15 19:13:21;;;;;;;2.97;1.97;;;4.80;72.40;;;;;;5096603;28;20667;-72
2021/04/15 19:15:49;;;;;;;1.67;1.57;;;4.70;72.20;;;;;;5094214;28;20182;-71
2021/04/15 19:18:19;;;;;;;1.57;1.50;;;4.70;72.60;;;;;;5093688;28;20179;-69
2021/04/15 19:20:47;;;;;;;1.73;1.63;;;4.70;72.50;;;;;;5095687;28;20182;-71
2021/04/15 19:23:17;;;;;;;2.50;1.93;;;4.60;72.70;;;;;;5092103;28;20194;-71
2021/04/15 19:25:43;;;;;;;2.00;1.90;;;4.60;72.70;;;;;;5091318;28;20609;-71
2021/04/15 19:28:14;;;;;;;4.80;1.93;;;4.60;73.00;;;;;;5092089;28;20308;-71
2021/04/15 19:30:41;;;;;;;3.10;1.97;;;4.50;73.20;;;;;;5093216;28;20177;-70
2021/04/15 19:33:07;;;;;;;2.87;2.30;;;4.50;73.30;;;;;;5090648;28;20201;-71
2021/04/15 19:35:34;;;;;;;4.33;1.87;;;4.50;73.40;;;;;;5095042;28;20205;-75
2021/04/15 19:37:59;;;;;;;1.77;1.67;;;4.50;73.70;;;;;;5088576;28;20182;-71
2021/04/15 19:40:29;;;;;;;1.60;1.50;;;4.40;73.70;;;;;;5101980;28;20184;-70
2021/04/15 19:42:55;;;;;;;3.30;1.73;;;4.40;73.60;;;;;;5100918;28;20254;-71
2021/04/15 19:45:22;;;;;;;2.17;1.83;;;4.40;73.70;;;;;;5101526;28;20178;-71
2021/04/15 19:47:48;;;;;;;3.07;1.70;;;4.40;73.70;;;;;;5096704;28;20702;-71
2021/04/15 19:50:25;;;;;;;6.67;2.20;;;4.40;73.80;;;;;;5099078;28;20192;-71
2021/04/15 19:52:51;;;;;;;5.93;1.80;;;4.40;73.90;;;;;;5104672;28;20220;-71
2021/04/15 19:55:18;;;;;;;2.20;1.93;;;4.40;74.00;;;;;;5097625;28;20186;-68
2021/04/15 19:57:45;;;;;;;2.40;2.20;;;4.30;73.90;;;;;;5098343;28;20178;-69
2021/04/15 20:00:37;;;;;;;5.40;2.27;;;4.30;74.10;;;;;;5099817;28;20181;-69
2021/04/15 20:03:04;;;;;;;2.13;1.70;;;4.30;74.00;;;;;;5097705;28;20185;-72
2021/04/15 20:05:30;;;;;;;1.80;1.70;;;4.30;73.90;;;;;;5099878;28;20261;-72
2021/04/15 20:07:57;;;;;;;1.57;1.47;;;4.30;74.10;;;;;;5098622;28;20182;-71
2021/04/15 20:10:35;;;;;;;1.50;1.40;;;4.40;73.90;;;;;;5091930;28;20662;-71
2021/04/15 20:13:02;;;;;;;1.23;1.23;;;4.40;73.70;;;;;;5090768;28;20220;-71
2021/04/15 20:15:28;;;;;;;2.93;1.80;;;4.40;73.80;;;;;;5099430;28;20178;-71
2021/04/15 20:17:54;;;;;;;6.80;1.73;;;4.40;73.80;;;;;;5101721;28;20184;-71
2021/04/15 20:20:19;;;;;;;2.73;2.30;;;4.40;73.80;;;;;;5098390;28;20232;-71
2021/04/15 20:22:46;;;;;;;2.13;1.40;;;4.40;73.70;;;;;;5097762;28;20260;-70
2021/04/15 20:25:15;;;;;;;1.73;1.70;;;4.40;73.50;;;;;;5075429;28;20727;-71
2021/04/15 20:27:42;;;;;;;2.80;2.60;;;4.30;73.40;;;;;;5098882;28;20174;-71
2021/04/15 20:30:11;;;;;;;3.57;2.00;;;4.30;73.70;;;;;;5098789;28;20190;-70
2021/04/15 20:32:36;;;;;;;2.13;1.83;;;4.30;74.00;;;;;;5093358;28;20206;-71
2021/04/15 20:35:03;;;;;;;2.70;1.30;;;4.20;74.10;;;;;;5097838;28;20192;-71
2021/04/15 20:37:29;;;;;;;2.33;1.73;;;4.20;74.10;;;;;;5098224;28;20192;-70
2021/04/15 20:39:55;;;;;;;1.50;1.40;;;4.20;74.20;;;;;;5101386;28;20186;-70
2021/04/15 20:42:21;;;;;;;1.83;1.20;;;4.20;74.40;;;;;;5102737;28;20189;-70
2021/04/15 20:44:48;;;;;;;1.13;1.10;;;4.20;74.50;;;;;;5101389;28;20178;-70
2021/04/15 20:47:16;;;;;;;1.47;1.37;;;4.20;74.60;;;;;;5098340;28;20182;-70
2021/04/15 20:49:42;;;;;;;0.80;0.80;;;4.20;74.70;;;;;;5097302;28;20184;-70
2021/04/15 20:52:08;;;;;;;1.20;1.10;;;4.20;74.70;;;;;;5099851;28;20198;-71
2021/04/15 20:54:34;;;;;;;1.07;0.57;;;4.10;74.90;;;;;;5101319;28;20625;-70
2021/04/15 20:57:00;;;;;;;0.67;0.57;;;4.10;74.80;;;;;;5102112;28;20440;-71
2021/04/15 20:59:26;;;;;;;0.83;0.73;;;4.10;74.80;;;;;;5102566;28;20181;-70
2021/04/15 21:01:51;;;;;;;0.73;0.73;;;4.10;74.90;;;;;;5102588;28;20178;-70
2021/04/15 21:04:20;;;;;;;1.53;0.97;;;4.00;75.10;;;;;;5103162;28;20260;-71
2021/04/15 21:06:46;;;;;;;0.80;0.80;;;;;;;;;;5103034;28;20177;-70
2021/04/15 21:09:12;;;;;;;0.30;0.30;;;4.00;75.20;;;;;;5101630;28;20183;-70
2021/04/15 21:11:38;;;;;;;0.87;0.70;;;;;;;;;;5092672;28;20186;-70
2021/04/15 21:14:04;;;;;;;1.40;0.53;;;4.00;75.30;;;;;;5098135;28;20333;-69
2021/04/15 21:16:30;;;;;;;1.30;0.67;;;;;;;;;;5095808;28;20295;-71
2021/04/15 21:18:56;;;;;;;0.70;0.70;;;3.90;75.40;;;;;;5105695;28;20186;-71
2021/04/15 21:21:22;;;;;;;0.80;0.80;;;;;;;;;;5100079;28;20180;-69
2021/04/15 21:23:49;;;;;;;0.77;0.40;;;;;;;;;;5104274;28;20196;-71
2021/04/15 21:26:15;;;;;;;0.47;0.47;;;;;;;;;;5102423;28;20235;-71
2021/04/15 21:28:41;;;;;;;0.63;0.63;;;;;;;;;;5098504;28;20236;-71
2021/04/15 21:31:09;;;;;;;0.40;0.40;;;3.80;75.60;;;;;;5102688;28;20178;-71
2021/04/15 21:33:35;;;;;;;0.40;0.40;;;3.80;75.60;;;;;;5106664;28;20218;-71
2021/04/15 21:36:01;;;;;;;0.80;0.80;;;3.80;75.90;;;;;;5102713;28;20188;-71
2021/04/15 21:38:28;;;;;;;0.40;0.40;;;3.70;75.90;;;;;;5103349;28;20249;-71
2021/04/15 21:40:55;;;;;;;1.17;1.17;;;3.70;76.00;;;;;;5102504;28;20793;-71
2021/04/15 21:43:22;;;;;;;0.57;0.57;;;3.80;75.90;;;;;;5105040;28;20235;-71
2021/04/15 21:45:48;;;;;;;1.00;0.73;;;3.70;75.70;;;;;;5101803;28;20174;-71
2021/04/15 21:48:19;;;;;;;0.73;0.63;;;3.70;75.70;;;;;;5100922;28;20925;-71
2021/04/15 21:50:47;;;;;;;2.10;0.63;;;3.70;75.70;;;;;;5098106;28;20178;-71
2021/04/15 21:53:16;;;;;;;1.23;1.07;;;3.70;75.60;;;;;;5102319;28;20755;-71
2021/04/15 21:55:42;;;;;;;0.40;0.40;;;;;;;;;;5101188;28;20189;-71
2021/04/15 21:58:21;;;;;;;1.33;0.90;;;3.60;75.90;;;;;;5097983;28;20177;-71
2021/04/15 22:00:50;;;;;;;0.83;0.60;;;3.60;75.90;;;;;;5080219;28;20201;-71
2021/04/15 22:03:16;;;;;;;1.47;0.67;;;3.60;75.90;;;;;;5099588;28;20558;-71
2021/04/15 22:05:47;;;;;;;0.80;0.80;;;3.60;76.00;;;;;;5103311;28;20256;-71
2021/04/15 22:08:16;;;;;;;0.73;0.37;;;3.60;76.00;;;;;;5101759;28;20230;-71
2021/04/15 22:10:52;;;;;;;0.93;0.77;;;3.60;76.00;;;;;;5097719;28;20252;-72
2021/04/15 22:13:19;;;;;;;2.30;1.77;;;3.50;76.00;;;;;;5101692;28;20201;-70
2021/04/15 22:15:45;;;;;;;0.73;0.73;;;3.50;76.20;;;;;;5101875;28;20181;-71
2021/04/15 22:18:14;;;;;;;0.67;0.50;;;3.50;76.20;;;;;;5099033;28;20847;-71
2021/04/15 22:20:44;;;;;;;1.60;0.77;;;3.50;76.30;;;;;;5103605;28;20658;-70
2021/04/15 22:23:19;;;;;;;0.63;0.63;;;3.40;76.40;;;;;;5101249;28;20201;-70
2021/04/15 22:25:45;;;;;;;0.90;0.87;;;;;;;;;;5102624;28;20249;-71
2021/04/15 22:28:15;;;;;;;0.60;0.60;;;3.40;76.40;;;;;;5103351;28;20173;-70
2021/04/15 22:30:42;;;;;;;0.80;0.80;;;3.40;76.40;;;;;;5098345;28;20802;-71
2021/04/15 22:33:09;;;;;;;0.60;0.60;;;3.40;76.40;;;;;;5099786;28;20209;-70
2021/04/15 22:35:36;;;;;;;0.83;0.83;;;3.40;76.60;;;;;;5104771;28;20193;-70
2021/04/15 22:38:04;;;;;;;0.50;0.50;;;3.30;76.50;;;;;;5101408;28;20261;-72
2021/04/15 22:40:33;;;;;;;0.67;0.67;;;3.40;76.90;;;;;;5080321;28;20213;-71
2021/04/15 22:42:59;;;;;;;0.67;0.67;;;3.30;76.60;;;;;;5102045;28;20186;-70
2021/04/15 22:45:26;;;;;;;0.60;0.60;;;3.30;76.90;;;;;;5098246;28;20177;-70
2021/04/15 22:47:53;;;;;;;2.03;0.70;;;3.30;76.90;;;;;;5096182;28;20201;-70
2021/04/15 22:50:22;;;;;;;0.30;0.30;;;3.30;76.70;;;;;;5097539;28;20265;-70
2021/04/15 22:52:48;;;;;;;0.50;0.50;;;3.30;76.70;;;;;;5099905;28;20239;-70
2021/04/15 22:55:33;;;;;;;1.00;1.00;;;3.30;76.90;;;;;;5104654;28;20293;-71
2021/04/15 22:58:02;;;;;;;0.30;0.30;;;3.30;76.90;;;;;;5102457;28;20193;-71
2021/04/15 23:00:32;;;;;;;0.87;0.70;;;3.20;76.90;;;;;;5100200;28;20219;-71
2021/04/15 23:02:57;;;;;;;1.20;1.20;;;3.20;77.00;;;;;;5104172;28;20178;-70
2021/04/15 23:05:24;;;;;;;2.20;1.20;;;3.20;76.70;;;;;;5097949;28;20554;-70
2021/04/15 23:07:52;;;;;;;1.27;1.17;;;3.30;76.90;;;;;;5103598;28;20255;-70
2021/04/15 23:10:24;;;;;;;1.40;1.33;;;3.20;76.90;;;;;;5097165;28;20171;-70
2021/04/15 23:12:50;;;;;;;1.40;1.30;;;3.20;76.90;;;;;;5099454;28;20240;-70
2021/04/15 23:15:18;;;;;;;1.23;1.17;;;3.20;76.90;;;;;;5100129;28;20686;-70
2021/04/15 23:17:44;;;;;;;1.00;1.00;;;3.30;76.60;;;;;;5103939;28;20298;-70
2021/04/15 23:20:12;;;;;;;1.00;0.77;;;3.30;76.70;;;;;;5103681;28;20187;-70
2021/04/15 23:22:37;;;;;;;1.30;0.73;;;3.30;76.50;;;;;;5095500;28;20179;-70
2021/04/15 23:25:05;;;;;;;0.77;0.77;;;3.30;76.40;;;;;;5101634;28;20717;-70
2021/04/15 23:27:31;;;;;;;1.20;0.93;;;3.30;76.50;;;;;;5097226;28;20185;-70
2021/04/15 23:29:57;;;;;;;1.03;1.03;;;3.30;76.50;;;;;;5101959;28;20170;-70
2021/04/15 23:32:23;;;;;;;2.27;0.87;;;3.30;76.50;;;;;;5098998;28;20193;-70
2021/04/15 23:34:49;;;;;;;0.67;0.67;;;3.30;76.40;;;;;;5099137;28;20300;-70
2021/04/15 23:37:15;;;;;;;0.77;0.77;;;3.30;76.50;;;;;;5101131;28;20654;-69
2021/04/15 23:39:41;;;;;;;0.70;0.70;;;3.30;76.50;;;;;;5097622;28;20178;-70
2021/04/15 23:42:07;;;;;;;0.83;0.83;;;3.20;76.50;;;;;;5096627;28;20184;-70
2021/04/15 23:44:33;;;;;;;0.50;0.50;;;3.20;76.60;;;;;;5101289;28;20193;-70
2021/04/15 23:46:59;;;;;;;0.70;0.70;;;3.20;76.70;;;;;;5099543;28;20262;-70
2021/04/15 23:49:25;;;;;;;0.53;0.53;;;3.20;77.00;;;;;;5077344;28;20189;-70
2021/04/15 23:51:51;;;;;;;0.43;0.43;;;3.20;76.90;;;;;;5099807;28;20250;-70
2021/04/15 23:54:19;;;;;;;1.03;0.87;;;3.20;77.10;;;;;;5097193;28;20177;-70
2021/04/15 23:56:46;;;;;;;1.10;1.00;;;3.20;77.10;;;;;;5101249;28;20196;-71
2021/04/15 23:59:12;;;;;;;1.27;1.27;;;3.20;77.10;;;;;;5093365;28;20570;-70
